Time;durP1;ratioP1;P1;durP2;ratioP2;P2;SDS_P1;SDS_P2;PMS_P1;PMS_P2;Temp;Humidity;BMP_temperature;BMP_pressure;BME280_temperature;BME280_humidity;BME280_pressure;Samples;Min_cycle;Max_cycle;Signal;HPM_P1;HPM_P2
2021/03/05 00:01:39;;;;;;;19.40;9.90;;;4.90;99.90;;;5.46;100.00;98432.28;5007910;28;20519;-79
2021/03/05 00:04:07;;;;;;;19.10;9.80;;;4.80;99.90;;;5.52;100.00;98440.28;5009661;28;21103;-79
2021/03/05 00:06:34;;;;;;;24.53;11.20;;;4.80;99.90;;;5.62;100.00;98442.03;5005034;28;20462;-80
2021/03/05 00:09:03;;;;;;;17.93;9.07;;;4.90;99.90;;;5.66;100.00;98448.56;5008100;28;20500;-80
2021/03/05 00:11:31;;;;;;;19.47;10.00;;;4.90;99.90;;;5.66;100.00;98448.56;5007884;28;20462;-80
2021/03/05 00:13:58;;;;;;;22.10;10.80;;;4.90;99.90;;;5.61;100.00;98455.97;5007074;28;20493;-80
2021/03/05 00:16:26;;;;;;;23.80;9.50;;;4.90;99.90;;;5.68;100.00;98468.22;5001265;28;20984;-79
2021/03/05 00:18:54;;;;;;;21.30;9.73;;;4.90;99.90;;;5.68;100.00;98467.38;5006860;28;20470;-79
2021/03/05 00:21:21;;;;;;;18.37;9.50;;;4.90;99.90;;;5.70;100.00;98468.88;5008510;28;20459;-79
2021/03/05 00:23:49;;;;;;;20.00;9.07;;;5.00;99.90;;;5.75;100.00;98473.63;5006347;28;20866;-79
2021/03/05 00:26:17;;;;;;;21.30;9.80;;;5.00;99.90;;;5.77;100.00;98471.69;5008762;28;20462;-80
2021/03/05 00:28:45;;;;;;;19.10;9.63;;;5.00;99.90;;;5.75;100.00;98468.44;5006478;28;20475;-80
2021/03/05 00:31:12;;;;;;;24.00;10.40;;;5.10;99.90;;;5.74;100.00;98469.38;5007461;28;20529;-79
2021/03/05 00:33:40;;;;;;;24.07;9.63;;;5.10;99.90;;;5.75;100.00;98469.25;5007006;28;20463;-80
2021/03/05 00:36:09;;;;;;;23.53;10.60;;;5.10;99.90;;;5.78;100.00;98465.53;5007343;28;20450;-80
2021/03/05 00:38:37;;;;;;;17.23;9.43;;;5.00;99.90;;;5.80;100.00;98476.56;5006585;28;20463;-79
2021/03/05 00:41:05;;;;;;;22.30;10.03;;;5.00;99.90;;;5.80;100.00;98471.38;5007662;28;20462;-80
2021/03/05 00:43:33;;;;;;;17.60;9.77;;;5.10;99.90;;;5.80;100.00;98476.56;5005003;28;20553;-79
2021/03/05 00:46:01;;;;;;;18.07;9.70;;;5.00;99.90;;;5.67;100.00;98479.53;5006298;28;20470;-80
2021/03/05 00:48:28;;;;;;;21.97;10.83;;;4.90;99.90;;;5.69;100.00;98488.00;5006106;28;21033;-80
2021/03/05 00:50:56;;;;;;;18.37;9.27;;;4.90;99.90;;;5.67;100.00;98484.72;5007871;28;20468;-80
2021/03/05 00:53:23;;;;;;;22.20;9.80;;;4.90;99.90;;;5.61;100.00;98481.91;5007106;28;20486;-80
2021/03/05 00:55:51;;;;;;;22.80;9.40;;;4.90;99.90;;;5.57;100.00;98482.19;5003584;28;20486;-79
2021/03/05 00:58:18;;;;;;;22.30;8.83;;;4.80;99.90;;;5.57;100.00;98487.38;5005042;28;20467;-79
2021/03/05 01:00:47;;;;;;;20.37;9.40;;;4.80;99.90;;;5.46;100.00;98478.97;5007379;28;20459;-79
2021/03/05 01:03:15;;;;;;;28.43;10.30;;;4.80;99.90;;;5.53;100.00;98480.84;5006005;28;20478;-79
2021/03/05 01:05:43;;;;;;;18.20;9.50;;;4.90;99.90;;;5.58;100.00;98483.84;5007464;28;20451;-79
2021/03/05 01:08:11;;;;;;;19.30;9.63;;;4.80;99.90;;;5.49;100.00;98473.47;5005821;28;20474;-79
2021/03/05 01:10:38;;;;;;;19.17;9.10;;;4.70;99.90;;;5.47;100.00;98476.25;4998663;28;21479;-80
2021/03/05 01:13:07;;;;;;;16.77;9.30;;;4.70;99.90;;;5.42;100.00;98487.97;5001381;28;20463;-80
2021/03/05 01:15:35;;;;;;;20.80;9.60;;;4.70;99.90;;;5.43;100.00;98489.63;5005803;28;20821;-80
2021/03/05 01:18:04;;;;;;;17.30;9.00;;;4.70;99.90;;;5.41;100.00;98492.38;5005980;28;20467;-80
2021/03/05 01:20:32;;;;;;;19.50;9.70;;;4.60;99.90;;;5.33;100.00;98497.44;5007726;28;20487;-80
2021/03/05 01:23:00;;;;;;;27.13;9.07;;;4.50;99.90;;;5.38;100.00;98492.63;5007278;28;20449;-80
2021/03/05 01:25:32;;;;;;;20.27;9.17;;;4.50;99.90;;;5.46;100.00;98497.13;5007605;28;20931;-79
2021/03/05 01:28:01;;;;;;;19.03;8.07;;;4.60;99.90;;;5.51;100.00;98493.16;5008084;28;20462;-79
2021/03/05 01:30:28;;;;;;;22.20;10.33;;;4.70;99.90;;;5.50;100.00;98490.69;5006942;28;20485;-79
2021/03/05 01:32:56;;;;;;;19.20;9.33;;;4.70;99.90;;;5.56;100.00;98495.28;5003632;28;20710;-80
2021/03/05 01:35:28;;;;;;;19.20;9.10;;;4.70;99.90;;;5.55;100.00;98491.88;5005338;28;20463;-80
2021/03/05 01:37:56;;;;;;;22.50;9.70;;;4.70;99.90;;;5.58;100.00;98489.00;5006953;28;20459;-80
2021/03/05 01:40:32;;;;;;;20.53;9.57;;;4.80;99.90;;;5.58;100.00;98498.56;5004058;28;20459;-79
2021/03/05 01:43:01;;;;;;;20.70;9.37;;;4.70;99.90;;;5.67;100.00;98491.69;5003283;28;20524;-79
2021/03/05 01:45:31;;;;;;;15.40;7.73;;;4.80;99.90;;;5.70;100.00;98493.97;5004050;28;20498;-79
2021/03/05 01:48:04;;;;;;;21.17;9.53;;;4.90;99.90;;;5.72;100.00;98489.47;5005989;28;20467;-79
2021/03/05 01:50:43;;;;;;;20.03;8.60;;;4.80;99.90;;;5.59;100.00;98485.44;5005140;28;20463;-80
2021/03/05 01:53:11;;;;;;;18.97;8.30;;;4.80;99.90;;;5.61;100.00;98487.91;5006209;28;20463;-80
2021/03/05 01:55:39;;;;;;;17.67;8.07;;;4.80;99.90;;;5.58;100.00;98483.84;5006082;28;20557;-80
2021/03/05 01:58:06;;;;;;;18.27;9.20;;;4.80;99.90;;;5.58;100.00;98481.22;5004738;28;20469;-80
2021/03/05 02:00:41;;;;;;;21.03;7.60;;;4.80;99.90;;;5.63;100.00;98475.59;5005743;28;20479;-80
2021/03/05 02:03:09;;;;;;;14.20;7.83;;;4.80;99.90;;;5.62;100.00;98483.53;5005547;28;20938;-80
2021/03/05 02:05:38;;;;;;;16.07;8.80;;;4.80;99.90;;;5.52;100.00;98476.59;5004330;28;20565;-80
2021/03/05 02:08:07;;;;;;;15.83;8.00;;;4.70;99.90;;;5.56;100.00;98484.91;5003246;28;20964;-80
2021/03/05 02:10:35;;;;;;;15.50;8.30;;;4.90;99.90;;;5.55;100.00;98489.28;5004382;28;20463;-80
2021/03/05 02:13:03;;;;;;;17.00;7.80;;;4.90;99.90;;;5.58;100.00;98483.84;5006680;28;20447;-80
2021/03/05 02:15:33;;;;;;;15.93;8.37;;;5.00;99.90;;;5.56;100.00;98484.91;5004609;28;20487;-80
2021/03/05 02:18:15;;;;;;;19.33;8.77;;;4.80;99.90;;;5.52;100.00;98486.97;5006536;28;20521;-79
2021/03/05 02:21:07;;;;;;;17.70;8.40;;;4.70;99.90;;;5.61;100.00;98477.53;5002584;28;20977;-80
2021/03/05 02:24:09;;;;;;;17.53;8.90;;;4.80;99.90;;;5.59;100.00;98480.25;5004154;28;21030;-80
2021/03/05 02:27:05;;;;;;;16.57;8.80;;;4.80;99.90;;;5.59;100.00;98485.44;5007021;28;20454;-80
2021/03/05 02:30:20;;;;;;;19.13;8.73;;;4.90;99.90;;;5.60;100.00;98488.84;5005606;28;20475;-80
2021/03/05 02:32:59;;;;;;;21.97;9.47;;;4.80;99.90;;;5.60;100.00;98483.66;5003845;28;20481;-80
2021/03/05 02:35:31;;;;;;;18.93;9.40;;;4.80;99.90;;;5.62;100.00;98483.53;5006078;28;20466;-80
2021/03/05 02:38:03;;;;;;;35.90;8.77;;;4.80;99.90;;;5.64;100.00;98486.78;5005486;28;20446;-79
2021/03/05 02:40:36;;;;;;;18.63;8.90;;;4.80;99.90;;;5.67;100.00;98482.13;5006852;28;20455;-81
2021/03/05 02:43:08;;;;;;;22.80;8.43;;;4.90;99.90;;;5.66;100.00;98485.69;5003961;28;20473;-79
2021/03/05 02:45:40;;;;;;;20.47;9.73;;;4.90;99.90;;;5.65;100.00;98496.22;5005881;28;20497;-79
2021/03/05 02:48:14;;;;;;;20.40;9.83;;;4.80;99.90;;;5.56;100.00;98495.28;5002491;28;20475;-80
2021/03/05 02:50:49;;;;;;;18.77;9.33;;;4.70;99.90;;;5.62;100.00;98494.72;5003317;28;20463;-80
2021/03/05 02:53:23;;;;;;;18.80;8.80;;;4.80;99.90;;;5.63;100.00;98490.34;5004855;28;20487;-80
2021/03/05 02:55:55;;;;;;;22.33;10.13;;;4.80;99.90;;;5.62;100.00;98499.91;5003015;28;20493;-80
2021/03/05 02:58:25;;;;;;;21.20;10.27;;;4.70;99.90;;;5.63;100.00;98492.94;5008810;28;20469;-79
2021/03/05 03:00:55;;;;;;;20.17;9.27;;;4.80;99.90;;;5.61;100.00;98497.47;5010024;28;20544;-80
2021/03/05 03:03:25;;;;;;;19.60;10.47;;;4.80;99.90;;;5.56;100.00;98503.88;5008622;28;20995;-79
2021/03/05 03:05:55;;;;;;;20.47;8.33;;;4.80;99.90;;;5.48;100.00;98500.41;5009698;28;20498;-80
2021/03/05 03:08:24;;;;;;;23.43;11.00;;;4.70;99.90;;;5.35;100.00;98500.72;5010470;28;20509;-80
2021/03/05 03:10:53;;;;;;;19.60;10.50;;;4.50;99.90;;;5.36;100.00;98504.94;5008068;28;20524;-79
2021/03/05 03:13:21;;;;;;;25.20;10.13;;;4.60;99.90;;;5.24;100.00;98505.28;5007198;28;20463;-80
2021/03/05 03:15:50;;;;;;;24.53;11.43;;;4.50;99.90;;;5.19;100.00;98513.47;5007277;28;20466;-80
2021/03/05 03:18:23;;;;;;;29.90;11.83;;;4.50;99.90;;;5.24;100.00;98511.25;5009426;28;20534;-80
2021/03/05 03:20:55;;;;;;;23.33;11.97;;;4.50;99.90;;;5.29;100.00;98513.44;5005037;28;20485;-79
2021/03/05 03:23:23;;;;;;;23.53;10.87;;;4.60;99.90;;;5.25;100.00;98510.31;5007961;28;20909;-79
2021/03/05 03:25:52;;;;;;;28.53;12.47;;;4.50;99.90;;;5.29;100.00;98518.63;5010161;28;20505;-79
2021/03/05 03:28:20;;;;;;;24.90;13.13;;;4.50;99.90;;;5.28;100.00;98522.97;5008084;28;20475;-79
2021/03/05 03:30:48;;;;;;;24.90;13.60;;;4.50;99.90;;;5.27;100.00;98528.31;5008050;28;20719;-79
2021/03/05 03:33:18;;;;;;;24.40;12.17;;;4.50;99.90;;;5.22;100.00;98523.56;5007979;28;20513;-80
2021/03/05 03:35:49;;;;;;;28.67;12.77;;;4.50;99.90;;;5.21;100.00;98532.28;5008001;28;20483;-79
2021/03/05 03:38:18;;;;;;;30.20;13.00;;;4.50;99.90;;;5.09;100.00;98533.41;5008591;28;20870;-79
2021/03/05 03:40:46;;;;;;;29.93;13.07;;;4.30;99.90;;;5.14;100.00;98525.22;5008250;28;20455;-79
2021/03/05 03:43:14;;;;;;;31.57;12.30;;;4.40;99.90;;;5.11;100.00;98536.66;5008976;28;20902;-80
2021/03/05 03:45:42;;;;;;;25.50;13.40;;;4.40;99.90;;;5.14;100.00;98538.19;5009112;28;20557;-79
2021/03/05 03:48:13;;;;;;;25.63;12.90;;;4.40;99.90;;;5.03;100.00;98539.97;5008629;28;21007;-79
2021/03/05 03:50:49;;;;;;;31.20;14.30;;;4.30;99.90;;;5.03;100.00;98544.34;5006923;28;20474;-79
2021/03/05 03:53:23;;;;;;;20.23;11.10;;;4.30;99.90;;;5.04;100.00;98545.97;5008234;28;20485;-79
2021/03/05 03:55:52;;;;;;;27.40;12.80;;;4.20;99.90;;;5.11;100.00;98543.63;5006280;28;20487;-79
2021/03/05 03:58:21;;;;;;;26.37;13.20;;;4.30;99.90;;;5.12;100.00;98550.44;5009723;28;20447;-79
2021/03/05 04:00:55;;;;;;;34.80;14.40;;;4.30;99.90;;;5.05;100.00;98547.59;5007509;28;20546;-79
2021/03/05 04:03:28;;;;;;;33.43;15.63;;;4.30;99.90;;;5.05;100.00;98552.78;5003981;28;20564;-79
2021/03/05 04:05:58;;;;;;;29.63;14.77;;;4.30;99.90;;;5.08;100.00;98553.31;5007411;28;21325;-79
2021/03/05 04:08:40;;;;;;;26.67;12.80;;;4.30;99.90;;;5.07;100.00;98566.41;5005217;28;20590;-79
2021/03/05 04:11:10;;;;;;;26.73;14.50;;;4.30;99.90;;;5.13;100.00;98559.88;5006446;28;20761;-79
2021/03/05 04:13:40;;;;;;;31.83;15.40;;;4.40;99.90;;;5.14;100.00;98562.31;5006256;28;20470;-80
2021/03/05 04:16:08;;;;;;;29.53;14.70;;;4.40;99.90;;;5.09;100.00;98567.09;5007422;28;20885;-79
2021/03/05 04:18:38;;;;;;;39.13;15.50;;;4.40;99.90;;;5.12;100.00;98566.00;5006447;28;20463;-79
2021/03/05 04:21:11;;;;;;;32.73;15.10;;;4.40;99.90;;;5.09;100.00;98569.69;5005938;28;20474;-80
2021/03/05 04:23:39;;;;;;;32.33;15.07;;;4.30;99.90;;;5.09;100.00;98577.47;5006287;28;20463;-79
2021/03/05 04:26:07;;;;;;;28.03;13.80;;;4.30;99.90;;;5.11;100.00;98575.56;5007520;28;20503;-80
2021/03/05 04:28:34;;;;;;;32.73;14.43;;;4.30;99.90;;;5.01;100.00;98579.94;5008202;28;20450;-79
2021/03/05 04:31:02;;;;;;;33.07;15.50;;;4.30;99.90;;;5.02;100.00;98585.00;5007913;28;20475;-80
2021/03/05 04:33:30;;;;;;;33.30;15.63;;;4.30;99.90;;;4.92;100.00;98584.19;5008551;28;20565;-79
2021/03/05 04:35:58;;;;;;;42.30;14.70;;;4.10;99.90;;;4.98;100.00;98588.81;5008342;28;21096;-80
2021/03/05 04:38:27;;;;;;;24.80;14.27;;;4.20;99.90;;;4.96;100.00;98592.50;5004484;28;20569;-79
2021/03/05 04:40:55;;;;;;;31.10;13.80;;;4.20;99.90;;;4.84;100.00;98594.41;5002462;28;20863;-79
2021/03/05 04:43:23;;;;;;;19.70;10.03;;;4.00;99.90;;;4.81;100.00;98601.63;4999112;28;21129;-81
2021/03/05 04:45:51;;;;;;;27.03;13.43;;;4.10;99.90;;;4.75;100.00;98612.56;5003524;28;21037;-79
2021/03/05 04:48:19;;;;;;;21.40;10.77;;;3.90;99.90;;;4.79;100.00;98613.94;5002172;28;20470;-80
2021/03/05 04:50:47;;;;;;;21.40;10.70;;;4.00;99.90;;;4.85;100.00;98618.56;5001833;28;20610;-80
2021/03/05 04:53:15;;;;;;;25.30;10.60;;;4.10;99.90;;;4.77;100.00;98621.00;5004481;28;20984;-79
2021/03/05 04:55:43;;;;;;;22.07;10.23;;;4.10;99.90;;;4.74;100.00;98610.91;5002617;28;20487;-79
2021/03/05 04:58:12;;;;;;;16.63;9.30;;;4.00;99.90;;;4.81;100.00;98624.97;5005906;28;20514;-79
2021/03/05 05:00:41;;;;;;;26.83;10.60;;;4.00;99.90;;;4.62;100.00;98624.97;5006168;28;20463;-79
2021/03/05 05:03:09;;;;;;;19.00;9.57;;;3.90;99.90;;;4.70;100.00;98623.31;5002213;28;21004;-80
2021/03/05 05:05:37;;;;;;;22.20;8.97;;;4.00;99.90;;;4.70;100.00;98625.91;5004412;28;20530;-79
2021/03/05 05:08:06;;;;;;;16.33;8.83;;;4.00;99.90;;;4.73;100.00;98627.41;5002788;28;20844;-79
2021/03/05 05:10:34;;;;;;;18.60;9.50;;;4.00;99.90;;;4.68;100.00;98627.81;5006066;28;20466;-80
2021/03/05 05:13:01;;;;;;;17.30;8.07;;;3.80;99.90;;;4.62;100.00;98637.91;5004170;28;20470;-80
2021/03/05 05:15:30;;;;;;;21.63;9.60;;;3.80;99.90;;;4.67;100.00;98636.53;5004217;28;20463;-80
2021/03/05 05:17:57;;;;;;;22.40;9.10;;;3.90;99.90;;;4.65;100.00;98632.47;5003772;28;20459;-79
2021/03/05 05:20:25;;;;;;;15.57;8.40;;;3.90;99.90;;;4.62;100.00;98633.53;5000325;28;20470;-79
2021/03/05 05:22:53;;;;;;;15.67;8.27;;;3.80;99.90;;;4.60;100.00;98630.25;5003677;28;20467;-79
2021/03/05 05:25:21;;;;;;;20.30;8.90;;;3.90;99.90;;;4.51;100.00;98639.63;5000891;28;20475;-79
2021/03/05 05:27:48;;;;;;;58.23;24.30;;;3.80;99.90;;;4.41;100.00;98641.41;5003952;28;20497;-80
2021/03/05 05:30:16;;;;;;;17.57;9.03;;;3.70;99.90;;;4.49;100.00;98641.56;5001958;28;20467;-79
2021/03/05 05:32:45;;;;;;;17.03;8.70;;;3.70;99.90;;;4.55;100.00;98642.78;5003201;28;20459;-80
2021/03/05 05:35:13;;;;;;;17.83;9.20;;;3.80;99.90;;;4.57;100.00;98639.13;5004827;28;21097;-79
2021/03/05 05:37:40;;;;;;;19.93;8.33;;;3.90;99.90;;;4.41;100.00;98646.56;5002753;28;20463;-79
2021/03/05 05:40:10;;;;;;;20.10;9.00;;;3.70;99.90;;;4.40;100.00;98647.56;5003041;28;20475;-79
2021/03/05 05:42:37;;;;;;;23.47;8.47;;;3.80;99.90;;;4.39;100.00;98651.09;5001368;28;20838;-79
2021/03/05 05:45:06;;;;;;;21.13;8.70;;;3.90;99.90;;;4.43;100.00;98654.22;5002955;28;20499;-79
2021/03/05 05:47:37;;;;;;;17.73;8.40;;;3.80;99.90;;;4.39;100.00;98658.84;5003561;28;20455;-80
2021/03/05 05:50:09;;;;;;;22.10;8.57;;;3.80;99.90;;;4.32;100.00;98641.38;4997765;28;20467;-79
2021/03/05 05:52:37;;;;;;;20.70;7.93;;;3.60;99.90;;;4.27;100.00;98648.75;5006588;28;20459;-80
2021/03/05 05:55:08;;;;;;;17.13;8.63;;;3.50;99.90;;;4.37;100.00;98652.97;5006885;28;20513;-80
2021/03/05 05:57:38;;;;;;;16.70;8.30;;;3.60;99.90;;;4.42;100.00;98653.41;5006811;28;20458;-80
2021/03/05 06:00:09;;;;;;;16.53;8.20;;;3.60;99.90;;;4.44;100.00;98651.47;5006717;28;20489;-80
2021/03/05 06:02:42;;;;;;;14.63;7.80;;;3.70;99.90;;;4.45;100.00;98658.31;5007272;28;20788;-80
2021/03/05 06:05:14;;;;;;;19.00;8.50;;;3.70;99.90;;;4.38;100.00;98649.44;5006945;28;20566;-80
2021/03/05 06:07:45;;;;;;;16.70;7.67;;;3.70;99.90;;;4.38;100.00;98656.38;5006505;28;20454;-80
2021/03/05 06:10:13;;;;;;;15.90;7.60;;;3.70;99.90;;;4.34;100.00;98660.22;5006803;28;20833;-80
2021/03/05 06:12:48;;;;;;;15.40;8.00;;;3.60;99.90;;;4.36;100.00;98661.72;5007028;28;20447;-79
2021/03/05 06:15:18;;;;;;;18.93;9.00;;;3.60;99.90;;;4.22;100.00;98662.06;5007402;28;20477;-80
2021/03/05 06:17:47;;;;;;;17.60;8.30;;;3.50;99.90;;;4.26;100.00;98667.81;5007812;28;20443;-79
2021/03/05 06:20:17;;;;;;;19.90;9.47;;;3.60;99.90;;;4.30;100.00;98666.59;5005843;28;20479;-80
2021/03/05 06:22:46;;;;;;;19.27;9.13;;;3.50;99.90;;;4.34;100.00;98675.75;5007349;28;20439;-80
2021/03/05 06:25:35;;;;;;;17.37;9.53;;;3.60;99.90;;;4.25;100.00;98667.00;5005960;28;20505;-80
2021/03/05 06:28:15;;;;;;;26.40;9.07;;;3.50;99.90;;;4.12;100.00;98681.94;5006026;28;20458;-80
2021/03/05 06:30:44;;;;;;;14.40;8.40;;;3.20;99.90;;;4.14;100.00;98679.19;5006877;28;20470;-80
2021/03/05 06:33:28;;;;;;;20.40;9.00;;;3.40;99.90;;;4.15;100.00;98683.44;5009870;28;20542;-80
2021/03/05 06:36:17;;;;;;;19.73;9.87;;;3.50;99.90;;;4.14;100.00;98685.19;5010138;28;20525;-80
2021/03/05 06:38:47;;;;;;;26.40;10.37;;;3.50;99.90;;;4.10;100.00;98689.00;5010808;28;20478;-79
2021/03/05 06:41:25;;;;;;;19.97;10.30;;;3.40;99.90;;;4.08;100.00;98688.31;5009982;28;20451;-80
2021/03/05 06:43:55;;;;;;;23.33;10.07;;;3.40;99.90;;;4.12;100.00;98689.69;5010236;28;20454;-79
2021/03/05 06:46:34;;;;;;;25.03;10.87;;;3.50;99.90;;;4.15;100.00;98691.19;5009533;28;20502;-80
2021/03/05 06:49:06;;;;;;;20.33;11.30;;;3.40;99.90;;;4.16;100.00;98698.84;5007648;28;20466;-79
2021/03/05 06:51:35;;;;;;;80.90;30.70;;;3.40;99.90;;;4.15;100.00;98697.19;5009162;28;20455;-79
2021/03/05 06:54:12;;;;;;;21.00;11.13;;;3.40;99.90;;;4.02;100.00;98694.00;5009973;28;20509;-79
2021/03/05 06:56:42;;;;;;;24.30;11.83;;;3.30;99.90;;;4.06;100.00;98703.16;5007162;28;20481;-80
2021/03/05 06:59:12;;;;;;;25.00;11.93;;;3.30;99.90;;;4.13;100.00;98706.03;5005950;28;20482;-80
2021/03/05 07:01:50;;;;;;;30.30;13.80;;;3.40;99.90;;;4.17;100.00;98720.34;5006197;28;20462;-80
2021/03/05 07:04:21;;;;;;;22.70;11.80;;;3.40;99.90;;;4.13;100.00;98708.63;5009711;28;20548;-78
2021/03/05 07:07:03;;;;;;;27.80;12.63;;;3.40;99.90;;;4.16;100.00;98713.53;5010404;28;20466;-80
2021/03/05 07:09:34;;;;;;;30.30;12.83;;;3.50;99.90;;;4.16;100.00;98711.78;5010907;28;20501;-80
2021/03/05 07:12:08;;;;;;;35.53;13.57;;;3.50;99.90;;;4.18;100.00;98725.41;5012166;28;20455;-80
2021/03/05 07:14:38;;;;;;;36.93;14.70;;;3.40;99.90;;;4.12;100.00;98723.34;5011899;28;20477;-81
2021/03/05 07:17:07;;;;;;;27.77;14.17;;;3.30;99.90;;;4.03;100.00;98724.91;5011912;28;20935;-80
2021/03/05 07:19:37;;;;;;;29.03;15.67;;;3.30;99.90;;;4.04;100.00;98728.31;5012025;28;20944;-81
2021/03/05 07:22:12;;;;;;;33.53;13.37;;;3.40;99.90;;;4.02;100.00;98731.06;5011908;28;20490;-80
2021/03/05 07:24:43;;;;;;;39.17;15.17;;;3.40;99.90;;;3.92;100.00;98731.97;5013601;28;21068;-81
2021/03/05 07:27:12;;;;;;;31.97;15.63;;;3.30;99.90;;;4.00;100.00;98732.13;5013336;28;20509;-81
2021/03/05 07:29:43;;;;;;;34.27;16.47;;;3.40;99.90;;;3.93;100.00;98731.00;5012291;28;20517;-81
2021/03/05 07:32:16;;;;;;;33.47;14.50;;;3.20;99.90;;;3.95;100.00;98737.69;5011460;28;20455;-81
2021/03/05 07:34:52;;;;;;;40.00;15.40;;;3.30;99.90;;;3.95;100.00;98748.03;5011503;28;20455;-80
2021/03/05 07:37:30;;;;;;;27.63;14.87;;;3.40;99.90;;;3.89;100.00;98742.53;5010752;28;20458;-81
2021/03/05 07:40:02;;;;;;;34.33;15.03;;;3.30;99.90;;;4.01;100.00;98737.19;5010623;28;20465;-80
2021/03/05 07:42:33;;;;;;;34.47;16.17;;;3.40;99.90;;;4.03;100.00;98747.38;5010752;28;20444;-80
2021/03/05 07:45:03;;;;;;;32.80;16.20;;;3.40;99.90;;;4.03;100.00;98755.13;5009963;28;21089;-80
2021/03/05 07:47:35;;;;;;;39.43;15.97;;;3.40;99.90;;;4.05;100.00;98759.25;5011133;28;20451;-80
2021/03/05 07:50:08;;;;;;;41.73;16.03;;;3.40;99.90;;;4.13;100.00;98757.81;5010864;28;20533;-80
2021/03/05 07:52:38;;;;;;;31.73;16.53;;;3.40;99.90;;;4.13;100.00;98756.00;5010154;28;20459;-80
2021/03/05 07:55:07;;;;;;;40.27;16.47;;;3.50;99.90;;;4.15;100.00;98764.47;5010642;28;20462;-81
2021/03/05 07:57:48;;;;;;;40.57;16.40;;;3.50;99.90;;;4.23;100.00;98767.25;5010726;28;20451;-80
2021/03/05 08:00:57;;;;;;;28.17;13.37;;;3.60;99.90;;;4.14;100.00;98751.66;5010262;28;20455;-81
2021/03/05 08:03:25;;;;;;;35.83;16.50;;;3.40;99.90;;;4.25;100.00;98765.34;5010623;28;20451;-80
2021/03/05 08:05:56;;;;;;;40.33;18.37;;;3.60;99.90;;;4.25;100.00;98752.41;5010374;28;20502;-80
2021/03/05 08:08:26;;;;;;;37.00;18.27;;;3.60;99.90;;;4.38;100.00;98763.34;5011551;28;20439;-80
2021/03/05 08:10:57;;;;;;;36.57;16.43;;;3.70;99.90;;;4.37;100.00;98764.28;5009734;28;20533;-80
2021/03/05 08:13:51;;;;;;;45.70;19.80;;;3.60;99.90;;;4.33;100.00;98765.53;5010807;28;20443;-80
2021/03/05 08:16:47;;;;;;;36.80;16.37;;;3.60;99.90;;;4.33;100.00;98773.28;5010453;28;20853;-80
2021/03/05 08:19:47;;;;;;;34.27;16.50;;;3.60;99.90;;;4.42;100.00;98771.66;5010576;28;20447;-80
2021/03/05 08:22:17;;;;;;;42.53;19.00;;;3.80;99.90;;;4.40;100.00;98777.00;5009681;28;20529;-80
2021/03/05 08:24:47;;;;;;;35.80;16.73;;;3.80;99.90;;;4.50;100.00;98780.44;5010204;28;20886;-80
2021/03/05 08:27:21;;;;;;;37.70;16.73;;;3.90;99.90;;;4.56;100.00;98782.50;5009318;28;20459;-80
2021/03/05 08:30:03;;;;;;;35.00;15.80;;;4.00;99.90;;;4.62;100.00;98793.31;5009992;28;20531;-81
2021/03/05 08:32:55;;;;;;;44.43;18.60;;;3.90;99.90;;;4.71;100.00;98789.91;5010102;28;20466;-81
2021/03/05 08:35:50;;;;;;;38.37;17.40;;;4.10;99.90;;;4.72;100.00;98794.94;5009656;28;20455;-80
2021/03/05 08:38:32;;;;;;;36.27;17.23;;;4.10;99.90;;;4.75;100.00;98799.88;5009853;28;21010;-80
2021/03/05 08:41:04;;;;;;;30.07;15.20;;;4.10;99.90;;;4.83;100.00;98805.22;5010241;28;20455;-81
2021/03/05 08:43:36;;;;;;;37.53;16.47;;;4.10;99.90;;;4.86;100.00;98804.16;5010170;28;20866;-80
2021/03/05 08:46:07;;;;;;;37.90;14.60;;;4.20;99.90;;;4.86;100.00;98807.53;5009476;28;20501;-81
2021/03/05 08:48:41;;;;;;;35.30;14.93;;;4.20;99.90;;;4.84;100.00;98819.81;5009739;28;20467;-80
2021/03/05 08:51:16;;;;;;;32.90;14.07;;;4.10;99.90;;;4.85;100.00;98805.09;5010176;28;20956;-80
2021/03/05 08:53:48;;;;;;;29.43;12.67;;;4.20;99.90;;;4.86;100.00;98815.31;5009157;28;20482;-80
2021/03/05 08:56:25;;;;;;;27.57;12.97;;;4.10;99.90;;;4.90;100.00;98810.69;5009888;28;20493;-80
2021/03/05 08:59:02;;;;;;;23.80;13.50;;;4.20;99.90;;;4.91;100.00;98814.91;5010387;28;20488;-80
2021/03/05 09:01:34;;;;;;;30.43;14.63;;;4.20;99.90;;;4.92;100.00;98813.97;5010055;28;20529;-80
2021/03/05 09:04:13;;;;;;;29.33;13.90;;;4.20;99.90;;;4.96;100.00;98812.75;5010185;28;20446;-80
2021/03/05 09:06:52;;;;;;;27.73;12.17;;;4.30;99.90;;;4.80;100.00;98813.25;5010288;28;20494;-80
2021/03/05 09:09:23;;;;;;;28.83;13.33;;;4.10;99.90;;;4.86;100.00;98817.91;5010607;28;20890;-80
2021/03/05 09:12:12;;;;;;;23.70;12.13;;;4.20;99.90;;;4.95;100.00;98813.72;5010271;28;20843;-80
2021/03/05 09:14:40;;;;;;;31.13;12.80;;;4.20;99.90;;;4.94;100.00;98818.06;5010141;28;20486;-80
2021/03/05 09:17:09;;;;;;;24.03;12.10;;;4.20;99.90;;;4.92;100.00;98812.22;5009758;28;20465;-80
2021/03/05 09:19:42;;;;;;;22.87;11.63;;;4.20;99.90;;;4.96;100.00;98813.56;5010192;28;20447;-80
2021/03/05 09:22:14;;;;;;;29.87;13.60;;;4.20;99.90;;;5.07;100.00;98823.81;5010132;28;21015;-80
2021/03/05 09:24:56;;;;;;;25.50;12.17;;;4.40;99.90;;;5.13;100.00;98822.47;5009762;28;20451;-80
2021/03/05 09:27:28;;;;;;;20.37;11.17;;;4.40;99.90;;;5.15;100.00;98828.34;5009871;28;20486;-80
2021/03/05 09:29:58;;;;;;;21.63;11.27;;;4.50;99.90;;;5.14;100.00;98836.28;5009771;28;21340;-80
2021/03/05 09:32:28;;;;;;;22.83;9.73;;;4.40;99.90;;;5.03;100.00;98838.00;5009914;28;20538;-80
2021/03/05 09:35:00;;;;;;;16.20;9.00;;;4.40;99.90;;;4.89;100.00;98832.38;5009747;28;21014;-80
2021/03/05 09:37:32;;;;;;;18.40;9.93;;;4.10;99.90;;;4.94;100.00;98835.38;5009853;28;20454;-80
2021/03/05 09:40:02;;;;;;;19.97;9.47;;;4.30;99.90;;;4.98;100.00;98837.59;5010264;28;20462;-80
2021/03/05 09:42:54;;;;;;;17.30;9.03;;;4.30;99.90;;;5.10;100.00;98840.91;5009596;28;20504;-80
2021/03/05 09:45:41;;;;;;;18.27;9.77;;;4.40;99.90;;;5.14;100.00;98842.25;5010176;28;20507;-80
2021/03/05 09:48:12;;;;;;;17.87;9.47;;;4.50;99.90;;;5.20;100.00;98846.91;5010111;28;20557;-80
2021/03/05 09:50:41;;;;;;;18.73;9.30;;;4.50;99.90;;;5.23;100.00;98849.25;5009965;28;20455;-80
2021/03/05 09:53:27;;;;;;;26.20;8.77;;;4.60;99.90;;;5.29;100.00;98861.66;5009634;28;20582;-80
2021/03/05 09:56:01;;;;;;;16.40;9.33;;;4.60;99.90;;;5.39;100.00;98857.31;5010406;28;20494;-80
2021/03/05 09:58:31;;;;;;;18.03;7.73;;;4.70;99.90;;;5.49;100.00;98855.56;5010224;28;20528;-80
2021/03/05 10:00:59;;;;;;;14.57;7.70;;;4.90;99.90;;;5.50;100.00;98864.97;5009558;28;20457;-80
2021/03/05 10:03:29;;;;;;;12.33;7.90;;;4.90;99.90;;;5.51;100.00;98869.22;5009549;28;20808;-80
2021/03/05 10:05:57;;;;;;;12.03;7.17;;;4.90;99.90;;;5.52;100.00;98873.44;5011803;28;20498;-80
2021/03/05 10:08:29;;;;;;;11.27;7.30;;;4.90;99.90;;;5.38;100.00;98876.41;5013563;28;20844;-80
2021/03/05 10:11:06;;;;;;;14.93;6.77;;;4.60;99.90;;;5.38;100.00;98881.59;5013580;28;20465;-80
2021/03/05 10:13:50;;;;;;;13.50;7.80;;;4.70;99.90;;;5.44;100.00;98875.06;5013568;28;20913;-80
2021/03/05 10:16:25;;;;;;;15.50;7.47;;;4.70;99.90;;;5.46;99.85;98879.16;5013310;28;20545;-80
2021/03/05 10:18:57;;;;;;;12.70;7.00;;;4.80;99.90;;;5.41;100.00;98885.72;5013406;28;20443;-80
2021/03/05 10:21:25;;;;;;;18.93;8.10;;;4.70;99.90;;;5.35;99.27;98884.47;5013193;28;20451;-80
2021/03/05 10:23:53;;;;;;;12.73;6.93;;;4.60;99.90;;;5.35;99.95;98884.47;5013658;28;20509;-81
2021/03/05 10:26:24;;;;;;;22.70;7.83;;;4.60;99.90;;;5.44;100.00;98891.47;5012795;28;20498;-80
2021/03/05 10:28:59;;;;;;;13.60;7.40;;;4.80;99.90;;;5.49;100.00;98894.44;5013276;28;20461;-80
2021/03/05 10:31:49;;;;;;;13.40;6.33;;;4.90;99.90;;;5.50;99.88;98901.28;5013318;28;20454;-80
2021/03/05 10:34:26;;;;;;;16.83;7.00;;;4.80;99.90;;;5.45;99.06;98895.66;5012930;28;20462;-80
2021/03/05 10:36:58;;;;;;;18.43;7.63;;;4.80;99.90;;;5.52;98.78;98903.72;5013281;28;20819;-80